Time;durP1;ratioP1;P1;durP2;ratioP2;P2;SDS_P1;SDS_P2;PMS_P1;PMS_P2;Temp;Humidity;BMP_temperature;BMP_pressure;BME280_temperature;BME280_humidity;BME280_pressure;Samples;Min_cycle;Max_cycle;Signal;HPM_P1;HPM_P2
2022/05/13 00:02:09;;;;;;;11.73;3.92;;;12.00;99.50;;;;;;5074518;28;20051;-66
2022/05/13 00:04:35;;;;;;;9.77;3.47;;;12.00;99.60;;;;;;5074342;28;20448;-65
2022/05/13 00:07:00;;;;;;;9.60;3.88;;;12.00;99.70;;;;;;5085822;28;20047;-66
2022/05/13 00:09:56;;;;;;;9.18;3.50;;;11.90;99.80;;;;;;5099778;28;20031;-65
2022/05/13 00:12:12;;;;;;;8.93;3.67;;;12.00;99.90;;;;;;5094222;28;20071;-66
2022/05/13 00:14:39;;;;;;;8.43;3.30;;;11.90;99.90;;;;;;5094384;28;20469;-66
2022/05/13 00:17:06;;;;;;;6.38;3.30;;;12.00;99.90;;;;;;5112915;28;20071;-66
2022/05/13 00:19:32;;;;;;;7.22;3.40;;;11.90;99.90;;;;;;5089859;28;20100;-66
2022/05/13 00:21:58;;;;;;;7.65;3.28;;;11.90;99.90;;;;;;5069777;28;20040;-66
2022/05/13 00:24:23;;;;;;;7.45;3.30;;;12.00;99.90;;;;;;5088207;28;20044;-66
2022/05/13 00:26:49;;;;;;;10.60;3.15;;;12.00;99.90;;;;;;5091714;28;20504;-66
2022/05/13 00:29:15;;;;;;;7.97;3.33;;;12.00;99.90;;;;;;5091481;28;20040;-66
2022/05/13 00:31:42;;;;;;;8.73;2.67;;;12.00;99.90;;;;;;5089488;28;20051;-66
2022/05/13 00:34:07;;;;;;;7.55;2.92;;;12.00;99.90;;;;;;5090018;28;20555;-65
2022/05/13 00:36:33;;;;;;;7.38;3.03;;;11.90;99.90;;;;;;5069118;28;20036;-66
2022/05/13 00:38:59;;;;;;;12.70;3.25;;;12.00;99.90;;;;;;5070323;28;20072;-66
2022/05/13 00:41:26;;;;;;;6.22;2.65;;;11.90;99.90;;;;;;5091465;28;20040;-66
2022/05/13 00:43:53;;;;;;;7.32;2.78;;;11.90;99.90;;;;;;5073364;28;20119;-66
2022/05/13 00:46:23;;;;;;;9.45;2.80;;;11.80;99.90;;;;;;5091336;28;20036;-66
2022/05/13 00:48:49;;;;;;;7.22;2.80;;;11.80;99.90;;;;;;5065772;28;20040;-67
2022/05/13 00:51:18;;;;;;;8.45;2.63;;;11.80;99.90;;;;;;5066231;28;20086;-66
2022/05/13 00:53:45;;;;;;;6.57;2.60;;;11.80;99.90;;;;;;5083482;28;20063;-66
2022/05/13 00:56:11;;;;;;;8.30;2.88;;;11.70;99.90;;;;;;5109811;28;21025;-66
2022/05/13 00:58:40;;;;;;;6.35;2.60;;;11.70;99.90;;;;;;5111230;28;20034;-65
2022/05/13 01:01:06;;;;;;;5.88;2.58;;;11.70;99.90;;;;;;5111597;28;20036;-66
2022/05/13 01:03:33;;;;;;;7.75;2.97;;;11.70;99.90;;;;;;5111271;28;20497;-63
2022/05/13 01:06:03;;;;;;;7.63;2.72;;;11.70;99.90;;;;;;5070463;28;20032;-63
2022/05/13 01:08:32;;;;;;;5.70;2.88;;;11.70;99.90;;;;;;5088483;28;20158;-64
2022/05/13 01:11:01;;;;;;;9.32;2.72;;;11.70;99.90;;;;;;5090949;28;20039;-64
2022/05/13 01:13:29;;;;;;;9.23;2.78;;;11.70;99.90;;;;;;5072967;28;20042;-64
2022/05/13 01:15:55;;;;;;;6.45;2.45;;;11.70;99.90;;;;;;5056283;28;20071;-64
2022/05/13 01:18:34;;;;;;;6.65;2.53;;;11.70;99.90;;;;;;5072568;28;20117;-64
2022/05/13 01:21:01;;;;;;;7.07;2.60;;;11.80;99.90;;;;;;5070223;28;20039;-67
2022/05/13 01:23:33;;;;;;;10.07;2.80;;;11.80;99.90;;;;;;5067154;28;20108;-64
2022/05/13 01:26:10;;;;;;;7.53;2.85;;;11.80;99.90;;;;;;5069648;28;20040;-63
2022/05/13 01:28:38;;;;;;;6.75;2.65;;;11.80;99.90;;;;;;5089210;28;20119;-63
2022/05/13 01:31:08;;;;;;;6.50;2.58;;;11.90;99.90;;;;;;5062734;28;20386;-65
2022/05/13 01:33:35;;;;;;;6.75;2.60;;;11.90;99.90;;;;;;5088998;28;20504;-69
2022/05/13 01:36:03;;;;;;;6.45;2.70;;;11.90;99.90;;;;;;5084893;28;20033;-64
2022/05/13 01:38:36;;;;;;;6.80;2.30;;;11.90;99.90;;;;;;5058168;28;20168;-65
2022/05/13 01:41:02;;;;;;;8.15;2.78;;;11.90;99.90;;;;;;5087112;28;20641;-64
2022/05/13 01:43:29;;;;;;;6.63;2.70;;;11.90;99.90;;;;;;5086559;28;20028;-73
2022/05/13 01:45:56;;;;;;;6.55;2.78;;;11.90;99.90;;;;;;5065295;28;20041;-66
2022/05/13 01:48:23;;;;;;;8.23;3.08;;;11.90;99.90;;;;;;5092102;28;20115;-70
2022/05/13 01:50:48;;;;;;;6.85;2.60;;;11.80;99.90;;;;;;5094037;28;20032;-65
2022/05/13 01:53:14;;;;;;;9.02;2.63;;;11.80;99.90;;;;;;5072117;28;20032;-71
2022/05/13 01:55:42;;;;;;;7.13;2.70;;;11.80;99.90;;;;;;5090532;28;20039;-64
2022/05/13 01:58:16;;;;;;;9.98;2.67;;;11.80;99.90;;;;;;5072060;28;20062;-63
2022/05/13 02:00:44;;;;;;;8.32;2.80;;;11.80;99.90;;;;;;5060505;28;20101;-65
2022/05/13 02:05:54;;;;;;;6.03;2.63;;;11.80;99.90;;;;;;5072756;28;20052;-69
2022/05/13 02:08:21;;;;;;;7.85;2.95;;;11.80;99.90;;;;;;5070042;28;20036;-65
2022/05/13 02:10:46;;;;;;;9.30;3.03;;;11.80;99.90;;;;;;5059367;28;20226;-65
2022/05/13 02:13:14;;;;;;;7.88;2.70;;;11.80;99.90;;;;;;5072466;28;20295;-65
2022/05/13 02:15:40;;;;;;;7.38;2.83;;;11.80;99.90;;;;;;5085296;28;20040;-64
2022/05/13 02:18:07;;;;;;;7.28;2.60;;;11.80;99.90;;;;;;5092740;28;20036;-65
2022/05/13 02:20:33;;;;;;;6.25;2.70;;;11.70;99.90;;;;;;5054055;28;20040;-64
2022/05/13 02:22:58;;;;;;;7.00;2.60;;;11.80;99.90;;;;;;5068702;28;20040;-66
2022/05/13 02:25:24;;;;;;;7.32;2.80;;;11.80;99.90;;;;;;5072493;28;20126;-64
2022/05/13 02:27:50;;;;;;;8.63;3.22;;;11.80;99.90;;;;;;5089260;28;20497;-65
2022/05/13 02:30:16;;;;;;;9.77;2.60;;;11.80;99.90;;;;;;5077516;28;20115;-66
2022/05/13 02:32:41;;;;;;;7.90;2.70;;;11.80;99.90;;;;;;5077342;28;20031;-71
2022/05/13 02:35:08;;;;;;;7.68;3.47;;;11.80;99.90;;;;;;5090126;28;20048;-64
2022/05/13 02:37:34;;;;;;;10.88;3.05;;;11.80;99.90;;;;;;5076482;28;20037;-67
2022/05/13 02:40:00;;;;;;;8.07;2.80;;;11.80;99.90;;;;;;5069945;28;20134;-67
2022/05/13 02:42:25;;;;;;;7.75;2.80;;;11.70;99.90;;;;;;5064856;28;20078;-71
2022/05/13 02:44:51;;;;;;;7.85;3.08;;;11.70;99.90;;;;;;5072170;28;20548;-64
2022/05/13 02:47:17;;;;;;;12.90;3.25;;;11.70;99.90;;;;;;5080890;28;20036;-64
2022/05/13 02:49:42;;;;;;;10.55;3.45;;;11.60;99.90;;;;;;5080499;28;20040;-65
2022/05/13 02:52:10;;;;;;;8.45;2.97;;;11.60;99.90;;;;;;5091441;28;20036;-66
2022/05/13 02:54:35;;;;;;;10.00;3.35;;;11.60;99.90;;;;;;5074168;28;20044;-71
2022/05/13 02:57:01;;;;;;;9.45;3.20;;;11.60;99.90;;;;;;5085093;28;20039;-65
2022/05/13 02:59:26;;;;;;;8.90;2.97;;;11.50;99.90;;;;;;5093301;28;20042;-65
2022/05/13 03:01:54;;;;;;;12.68;3.70;;;11.50;99.90;;;;;;5074588;28;20071;-72
2022/05/13 03:04:20;;;;;;;7.80;3.08;;;11.50;99.90;;;;;;5077080;28;20522;-64
2022/05/13 03:06:46;;;;;;;10.00;3.25;;;11.50;99.90;;;;;;5071033;28;20044;-73
2022/05/13 03:09:11;;;;;;;9.25;3.22;;;11.50;99.90;;;;;;5075049;28;20047;-65
2022/05/13 03:11:37;;;;;;;9.23;3.10;;;11.50;99.90;;;;;;5087121;28;20041;-65
2022/05/13 03:14:03;;;;;;;11.27;3.38;;;11.40;99.90;;;;;;5064512;28;20481;-67
2022/05/13 03:16:30;;;;;;;7.00;2.92;;;11.40;99.90;;;;;;5093231;28;20055;-71
2022/05/13 03:18:58;;;;;;;8.88;3.22;;;11.40;99.90;;;;;;5078817;28;20039;-64
2022/05/13 03:21:24;;;;;;;9.65;3.33;;;11.40;99.90;;;;;;5077479;28;20089;-64
2022/05/13 03:23:50;;;;;;;9.05;2.90;;;11.40;99.90;;;;;;5095393;28;20039;-64
2022/05/13 03:26:18;;;;;;;10.75;3.03;;;11.40;99.90;;;;;;5095466;28;20051;-65
2022/05/13 03:28:44;;;;;;;9.52;3.13;;;11.40;99.90;;;;;;5097237;28;20035;-65
2022/05/13 03:31:10;;;;;;;10.23;3.20;;;11.40;99.90;;;;;;5074697;28;20044;-65
2022/05/13 03:33:35;;;;;;;11.63;3.28;;;11.40;99.90;;;;;;5092193;28;20067;-66
2022/05/13 03:36:01;;;;;;;7.47;2.92;;;11.30;99.90;;;;;;5074851;28;20093;-68
2022/05/13 03:38:26;;;;;;;10.45;3.42;;;11.30;99.90;;;;;;5092820;28;20043;-64
2022/05/13 03:40:52;;;;;;;11.15;3.03;;;11.30;99.90;;;;;;5074806;28;20046;-65
2022/05/13 03:43:18;;;;;;;9.48;2.83;;;11.30;99.90;;;;;;5092074;28;20038;-65
2022/05/13 03:45:44;;;;;;;10.18;2.92;;;11.30;99.90;;;;;;5094535;28;20519;-65
2022/05/13 03:48:11;;;;;;;13.15;3.97;;;11.30;99.90;;;;;;5084599;28;20045;-69
2022/05/13 03:50:40;;;;;;;13.43;3.00;;;11.30;99.90;;;;;;5072755;28;20032;-65
2022/05/13 03:53:06;;;;;;;8.63;3.03;;;11.40;99.90;;;;;;5099461;28;20128;-68
2022/05/13 03:55:33;;;;;;;11.85;3.50;;;11.40;99.90;;;;;;5092371;28;20130;-71
2022/05/13 03:57:59;;;;;;;9.77;3.15;;;11.40;99.90;;;;;;5087924;28;20032;-65
2022/05/13 04:00:25;;;;;;;10.73;3.58;;;11.40;99.90;;;;;;5080768;28;20375;-65
2022/05/13 04:02:51;;;;;;;10.63;3.25;;;11.40;99.90;;;;;;5083490;28;20379;-65
2022/05/13 04:10:46;;;;;;;11.50;3.15;;;11.40;99.90;;;;;;5079510;28;20036;-64
2022/05/13 04:16:04;;;;;;;11.65;3.13;;;11.40;99.90;;;;;;5076763;28;20044;-64
2022/05/13 04:18:31;;;;;;;14.32;3.58;;;11.40;99.90;;;;;;5072750;28;20085;-71
2022/05/13 04:20:56;;;;;;;14.50;3.70;;;11.50;99.90;;;;;;5092068;28;20040;-68
2022/05/13 04:23:23;;;;;;;10.40;3.20;;;11.50;99.90;;;;;;5073191;28;20404;-71
2022/05/13 04:25:49;;;;;;;11.35;4.03;;;11.50;99.90;;;;;;5070424;28;20504;-72
2022/05/13 04:28:15;;;;;;;13.40;3.53;;;11.50;99.90;;;;;;5086313;28;20114;-70
2022/05/13 04:30:41;;;;;;;11.10;3.25;;;11.50;99.90;;;;;;5063332;28;20043;-71
2022/05/13 04:33:07;;;;;;;13.85;3.70;;;11.50;99.90;;;;;;5099942;28;20028;-68
2022/05/13 04:35:32;;;;;;;13.10;4.10;;;11.50;99.90;;;;;;5073555;28;20044;-64
2022/05/13 04:37:58;;;;;;;14.65;3.45;;;11.50;99.90;;;;;;5073215;28;20490;-65
2022/05/13 04:40:23;;;;;;;12.43;3.85;;;11.50;99.90;;;;;;5066020;28;20047;-65
2022/05/13 04:42:49;;;;;;;20.48;3.97;;;11.60;99.90;;;;;;5087646;28;20028;-67
2022/05/13 04:45:23;;;;;;;19.40;4.70;;;11.60;99.90;;;;;;5088361;28;20062;-65
2022/05/13 04:48:15;;;;;;;15.65;4.80;;;11.60;99.90;;;;;;5095437;28;20046;-70
2022/05/13 04:50:44;;;;;;;16.88;4.15;;;11.60;99.90;;;;;;5093552;28;20085;-64
2022/05/13 04:53:10;;;;;;;17.17;4.43;;;11.70;99.90;;;;;;5093590;28;20375;-65
2022/05/13 04:55:37;;;;;;;17.77;4.28;;;11.70;99.90;;;;;;5092747;28;20051;-65
2022/05/13 04:58:04;;;;;;;19.92;4.63;;;11.70;99.90;;;;;;5091278;28;20051;-65
2022/05/13 05:00:30;;;;;;;12.50;4.00;;;11.80;99.90;;;;;;5065193;28;20111;-70
2022/05/13 05:02:56;;;;;;;20.80;5.00;;;11.80;99.90;;;;;;5097269;28;20036;-66
2022/05/13 05:05:22;;;;;;;19.00;5.47;;;11.90;99.90;;;;;;5093349;28;20047;-66
2022/05/13 05:07:48;;;;;;;14.38;4.43;;;11.90;99.90;;;;;;5103693;28;20405;-68
2022/05/13 05:10:13;;;;;;;19.55;5.03;;;11.90;99.90;;;;;;5086837;28;20039;-71
2022/05/13 05:12:39;;;;;;;14.50;4.90;;;11.90;99.90;;;;;;5071451;28;20047;-65
2022/05/13 05:15:07;;;;;;;17.42;5.20;;;11.90;99.90;;;;;;5091330;28;20489;-65
2022/05/13 05:17:33;;;;;;;19.05;4.55;;;12.00;99.90;;;;;;5069235;28;20032;-65
2022/05/13 05:19:58;;;;;;;15.13;4.72;;;12.00;99.90;;;;;;5071503;28;20032;-65
2022/05/13 05:22:24;;;;;;;18.92;5.18;;;12.10;99.90;;;;;;5066381;28;20406;-71
2022/05/13 05:24:49;;;;;;;19.13;4.97;;;12.10;99.90;;;;;;5104825;28;20406;-64
2022/05/13 05:27:15;;;;;;;14.38;4.75;;;12.10;99.90;;;;;;5080922;28;20043;-64
2022/05/13 05:32:09;;;;;;;15.40;4.82;;;12.20;99.90;;;;;;5098341;28;20404;-65
2022/05/13 05:34:35;;;;;;;20.40;4.80;;;12.30;99.90;;;;;;5092543;28;20040;-66
2022/05/13 05:37:00;;;;;;;22.95;5.35;;;12.40;99.90;;;;;;5096220;28;20027;-66
2022/05/13 05:39:26;;;;;;;16.83;4.93;;;12.40;99.90;;;;;;5093055;28;20067;-66
2022/05/13 05:41:51;;;;;;;17.75;4.97;;;12.40;99.90;;;;;;5100245;28;20520;-66
2022/05/13 05:44:17;;;;;;;14.38;5.22;;;12.40;99.90;;;;;;5097495;28;20028;-66
2022/05/13 05:46:42;;;;;;;19.77;5.28;;;12.40;99.90;;;;;;5083952;28;20031;-66
2022/05/13 05:49:08;;;;;;;17.23;4.72;;;12.50;99.90;;;;;;5096908;28;20127;-66
2022/05/13 05:51:33;;;;;;;13.98;4.13;;;12.40;99.90;;;;;;5099947;28;20043;-66
2022/05/13 05:59:27;;;;;;;14.98;4.45;;;12.80;99.90;;;;;;5072080;28;20482;-68
2022/05/13 06:01:53;;;;;;;14.90;3.92;;;12.90;99.90;;;;;;5089780;28;20040;-68
2022/05/13 06:04:19;;;;;;;16.92;4.70;;;13.00;99.90;;;;;;5090512;28;20075;-68
2022/05/13 06:06:44;;;;;;;12.40;4.05;;;13.00;99.90;;;;;;5102543;28;20032;-68
2022/05/13 06:09:10;;;;;;;21.77;4.57;;;13.10;99.90;;;;;;5084752;28;20039;-68
2022/05/13 06:11:39;;;;;;;17.45;4.22;;;13.10;99.90;;;;;;5108631;28;20027;-66
2022/05/13 06:14:05;;;;;;;9.70;3.88;;;13.20;99.90;;;;;;5096711;28;20051;-66
2022/05/13 06:16:31;;;;;;;13.13;4.05;;;13.20;99.90;;;;;;5119687;28;20028;-66
2022/05/13 06:19:00;;;;;;;12.68;3.63;;;13.20;99.90;;;;;;5067308;28;20044;-66
2022/05/13 06:21:31;;;;;;;12.68;3.75;;;13.30;99.90;;;;;;5083265;28;20042;-66
2022/05/13 06:23:57;;;;;;;12.30;3.78;;;13.40;99.90;;;;;;5099884;27;20031;-66
2022/05/13 06:26:22;;;;;;;14.00;4.15;;;13.50;99.90;;;;;;5112905;27;20027;-66
2022/05/13 06:28:48;;;;;;;13.10;4.00;;;13.60;99.90;;;;;;5104293;28;20040;-66
2022/05/13 06:31:13;;;;;;;12.45;4.07;;;13.70;99.90;;;;;;5093922;28;20444;-66
2022/05/13 06:33:39;;;;;;;13.88;4.47;;;13.70;99.90;;;;;;5075563;28;20039;-66
2022/05/13 06:36:06;;;;;;;14.40;4.47;;;13.70;99.90;;;;;;5074477;28;20137;-66
2022/05/13 06:38:31;;;;;;;13.50;4.05;;;13.70;99.90;;;;;;5093271;28;20066;-66
2022/05/13 06:40:57;;;;;;;12.30;3.70;;;13.80;99.90;;;;;;5094070;28;20067;-66
2022/05/13 06:43:23;;;;;;;12.10;3.63;;;13.70;99.90;;;;;;5093231;28;20486;-68
2022/05/13 06:45:49;;;;;;;13.57;3.60;;;13.70;99.90;;;;;;5074597;28;20465;-67
2022/05/13 06:48:15;;;;;;;10.48;2.83;;;13.70;99.90;;;;;;5080333;28;20131;-67
2022/05/13 06:50:43;;;;;;;8.32;2.50;;;13.70;99.90;;;;;;5092880;28;20119;-67
2022/05/13 06:53:10;;;;;;;7.72;2.50;;;13.70;99.90;;;;;;5074407;28;20036;-67
2022/05/13 06:55:36;;;;;;;7.63;2.58;;;13.70;99.90;;;;;;5092124;28;20066;-67
2022/05/13 06:58:02;;;;;;;7.93;2.70;;;13.70;99.90;;;;;;5091841;28;20040;-67
2022/05/13 07:00:27;;;;;;;7.88;2.75;;;13.70;99.90;;;;;;5072895;28;20036;-67
2022/05/13 07:02:53;;;;;;;9.80;2.55;;;13.80;99.90;;;;;;5074431;28;20451;-67
2022/05/13 07:05:20;;;;;;;8.02;2.20;;;13.80;99.90;;;;;;5092309;28;20043;-67
2022/05/13 07:07:46;;;;;;;7.93;2.40;;;13.90;99.90;;;;;;5093636;28;20489;-67
2022/05/13 07:10:12;;;;;;;10.85;3.03;;;14.00;99.90;;;;;;5093249;28;20047;-67
2022/05/13 07:12:38;;;;;;;6.60;2.45;;;14.00;99.90;;;;;;5073881;28;20032;-67
2022/05/13 07:15:07;;;;;;;8.30;2.30;;;14.00;99.90;;;;;;5075355;28;20088;-67
2022/05/13 07:17:33;;;;;;;9.32;2.60;;;14.10;99.90;;;;;;5092978;28;20077;-67
2022/05/13 07:19:59;;;;;;;12.38;2.42;;;14.10;99.90;;;;;;5093723;28;20036;-67
2022/05/13 07:22:25;;;;;;;7.93;2.40;;;14.20;99.90;;;;;;5091606;28;20116;-67
2022/05/13 07:24:53;;;;;;;7.65;2.33;;;14.20;99.90;;;;;;5075332;28;20093;-68
2022/05/13 07:27:19;;;;;;;10.88;2.53;;;14.20;99.90;;;;;;5091972;28;20032;-67
2022/05/13 07:29:44;;;;;;;11.35;2.53;;;14.20;99.90;;;;;;5075044;28;20036;-68
2022/05/13 07:32:10;;;;;;;9.73;2.40;;;14.20;99.90;;;;;;5099957;27;20042;-67
2022/05/13 07:34:36;;;;;;;8.23;2.50;;;14.30;99.90;;;;;;5097107;28;20091;-67
2022/05/13 07:37:01;;;;;;;9.30;2.20;;;14.30;99.90;;;;;;5097477;28;20046;-67
2022/05/13 07:42:12;;;;;;;6.93;2.08;;;14.40;99.90;;;;;;5100477;28;20051;-67
2022/05/13 07:44:38;;;;;;;6.63;2.05;;;14.50;99.90;;;;;;5077786;28;20036;-67
2022/05/13 07:47:06;;;;;;;7.57;2.17;;;14.60;99.90;;;;;;5102002;28;20116;-67
2022/05/13 07:49:34;;;;;;;10.57;2.28;;;14.60;99.90;;;;;;5074526;28;20101;-67
2022/05/13 07:51:59;;;;;;;7.05;1.75;;;14.60;99.90;;;;;;5075926;28;20115;-67
2022/05/13 07:54:26;;;;;;;5.63;1.80;;;14.60;99.90;;;;;;5095351;27;20036;-67
2022/05/13 07:56:52;;;;;;;7.82;2.28;;;14.60;99.90;;;;;;5095873;28;20387;-67
2022/05/13 07:59:17;;;;;;;7.32;2.38;;;14.60;99.90;;;;;;5103660;27;20054;-67
2022/05/13 08:01:43;;;;;;;8.82;2.05;;;14.60;99.90;;;;;;5093024;28;20032;-67
2022/05/13 08:04:08;;;;;;;7.30;2.03;;;14.70;99.90;;;;;;5075508;28;20039;-67
2022/05/13 08:06:34;;;;;;;8.60;2.10;;;14.80;99.90;;;;;;5094215;28;20118;-67
2022/05/13 08:09:00;;;;;;;9.07;1.90;;;14.90;99.90;;;;;;5107298;28;20054;-67
2022/05/13 08:11:30;;;;;;;9.57;2.05;;;15.00;99.90;;;;;;5112676;28;20042;-67
2022/05/13 08:13:57;;;;;;;6.65;1.80;;;15.10;99.90;;;;;;5109524;28;20038;-67
2022/05/13 08:16:26;;;;;;;5.57;1.70;;;15.10;99.90;;;;;;5107115;28;20115;-67
2022/05/13 08:18:55;;;;;;;7.88;2.10;;;15.20;99.90;;;;;;5102058;28;20028;-67
2022/05/13 08:21:21;;;;;;;9.15;2.40;;;15.30;99.90;;;;;;5091718;28;20036;-67
2022/05/13 08:23:48;;;;;;;8.48;2.05;;;15.30;99.90;;;;;;5073871;28;20483;-67
2022/05/13 08:26:13;;;;;;;5.43;1.70;;;15.50;99.90;;;;;;5077272;28;20036;-67
2022/05/13 08:28:40;;;;;;;8.15;1.85;;;15.50;99.90;;;;;;5104167;28;20039;-68
2022/05/13 08:31:07;;;;;;;5.68;1.70;;;15.60;99.90;;;;;;5090373;28;20431;-68
2022/05/13 08:33:33;;;;;;;4.45;1.70;;;15.80;99.90;;;;;;5071200;28;20040;-67
2022/05/13 08:36:02;;;;;;;5.78;1.90;;;15.90;99.60;;;;;;5074192;28;20509;-67
2022/05/13 08:38:30;;;;;;;11.85;2.67;;;16.10;99.90;;;;;;5096828;28;20038;-67
2022/05/13 08:41:24;;;;;;;3.58;1.58;;;16.30;99.10;;;;;;5081296;28;20078;-67
2022/05/13 08:44:00;;;;;;;9.40;1.80;;;16.40;98.80;;;;;;5063301;28;20059;-67
2022/05/13 08:46:35;;;;;;;5.72;1.70;;;16.40;97.90;;;;;;5093898;28;20066;-67
2022/05/13 08:49:00;;;;;;;6.90;2.00;;;16.30;97.50;;;;;;5111474;27;20047;-67
2022/05/13 08:51:55;;;;;;;8.75;1.80;;;16.20;97.70;;;;;;5104969;27;20044;-67
2022/05/13 08:54:29;;;;;;;6.55;2.10;;;16.30;97.80;;;;;;5088986;27;20043;-67
2022/05/13 08:56:59;;;;;;;7.15;2.33;;;16.30;97.50;;;;;;5105617;28;20615;-67
2022/05/13 08:59:48;;;;;;;7.57;1.92;;;16.30;97.60;;;;;;5100340;28;20036;-67
2022/05/13 09:02:26;;;;;;;7.95;1.92;;;16.20;97.90;;;;;;5089026;28;20041;-67
2022/05/13 09:05:00;;;;;;;6.38;1.85;;;16.10;98.00;;;;;;5089773;28;20622;-68
2022/05/13 09:07:26;;;;;;;5.22;1.90;;;16.20;98.40;;;;;;5107456;28;20035;-67
2022/05/13 09:09:57;;;;;;;4.72;1.95;;;16.30;98.10;;;;;;5092950;27;20039;-67
2022/05/13 09:12:29;;;;;;;8.68;1.70;;;16.50;97.80;;;;;;5099681;27;20036;-67
2022/05/13 09:15:04;;;;;;;9.68;2.20;;;16.70;97.40;;;;;;5080425;28;20040;-67
2022/05/13 09:17:37;;;;;;;10.80;2.58;;;16.80;97.00;;;;;;5073797;28;20043;-67
2022/05/13 09:20:10;;;;;;;7.13;1.80;;;16.80;97.30;;;;;;5090606;28;20027;-67
2022/05/13 09:22:54;;;;;;;9.77;1.60;;;16.70;97.60;;;;;;5057192;28;20043;-67
2022/05/13 09:25:26;;;;;;;11.35;1.95;;;16.80;97.30;;;;;;5083606;28;20040;-67
2022/05/13 09:28:01;;;;;;;6.40;1.98;;;16.70;96.90;;;;;;5070886;28;20040;-67
2022/05/13 09:30:42;;;;;;;8.75;2.13;;;16.70;96.40;;;;;;5073358;28;20565;-67
2022/05/13 09:33:33;;;;;;;5.77;1.97;;;16.60;96.70;;;;;;5099939;28;20485;-67
2022/05/13 09:36:18;;;;;;;10.27;2.40;;;16.40;96.80;;;;;;5075914;28;20527;-67
2022/05/13 09:38:56;;;;;;;8.45;2.15;;;16.30;97.00;;;;;;5079343;28;20052;-67
2022/05/13 09:41:31;;;;;;;8.00;2.08;;;16.30;96.90;;;;;;5098166;28;20384;-67
2022/05/13 09:44:09;;;;;;;7.82;2.25;;;16.30;97.10;;;;;;5086486;28;20419;-67
2022/05/13 09:46:43;;;;;;;11.35;2.05;;;16.40;96.70;;;;;;5096687;28;20492;-67
2022/05/13 09:49:18;;;;;;;7.95;2.35;;;16.50;96.50;;;;;;5080212;28;20036;-67
2022/05/13 09:51:59;;;;;;;9.57;2.05;;;16.50;96.90;;;;;;5077912;28;20417;-67
2022/05/13 09:54:33;;;;;;;12.23;2.15;;;16.70;95.60;;;;;;5095871;28;20039;-67
2022/05/13 09:57:12;;;;;;;6.55;2.30;;;16.70;95.70;;;;;;5070167;28;20498;-67
2022/05/13 09:59:45;;;;;;;10.50;2.40;;;16.70;96.30;;;;;;5087750;28;20035;-67
2022/05/13 10:02:22;;;;;;;6.43;1.85;;;16.80;96.00;;;;;;5099673;27;20087;-67
2022/05/13 10:04:54;;;;;;;7.97;2.10;;;17.00;96.00;;;;;;5100992;27;20047;-67
2022/05/13 10:07:24;;;;;;;12.52;2.03;;;17.20;95.70;;;;;;5099480;27;20035;-67
2022/05/13 10:15:49;;;;;;;5.95;1.70;;;17.90;94.40;;;;;;5073495;28;20048;-67
2022/05/13 10:18:26;;;;;;;10.95;2.13;;;18.30;93.40;;;;;;5100191;28;20489;-67
2022/05/13 10:20:57;;;;;;;5.45;1.98;;;18.50;92.20;;;;;;5070584;28;20047;-67
2022/05/13 10:23:33;;;;;;;8.65;2.10;;;18.60;91.50;;;;;;5101996;28;20652;-67
2022/05/13 10:26:06;;;;;;;11.65;2.88;;;18.60;91.30;;;;;;5077034;28;20044;-67
2022/05/13 10:28:44;;;;;;;7.25;2.40;;;18.40;91.60;;;;;;5091818;28;20440;-67
2022/05/13 10:31:16;;;;;;;10.77;2.72;;;18.20;90.20;;;;;;5087183;27;20036;-67
2022/05/13 10:34:14;;;;;;;8.75;2.53;;;17.90;90.00;;;;;;5080191;28;20048;-67
2022/05/13 10:36:45;;;;;;;23.38;2.80;;;17.70;91.30;;;;;;5073448;28;20090;-66
2022/05/13 10:39:51;;;;;;;12.65;2.50;;;17.70;91.10;;;;;;5071887;28;20315;-67
2022/05/13 10:42:25;;;;;;;7.43;2.67;;;17.70;91.50;;;;;;5093320;28;20075;-67
2022/05/13 10:44:58;;;;;;;9.20;3.42;;;17.80;92.10;;;;;;5077467;28;20032;-67
2022/05/13 10:47:28;;;;;;;9.80;2.70;;;17.90;91.50;;;;;;5097861;28;20043;-67
2022/05/13 10:49:53;;;;;;;6.20;2.25;;;17.90;91.40;;;;;;5075604;28;20040;-67
2022/05/13 10:52:40;;;;;;;10.82;2.80;;;17.80;91.20;;;;;;5095599;28;20733;-67
2022/05/13 10:55:23;;;;;;;9.20;2.50;;;17.40;91.20;;;;;;5073601;28;20040;-67
2022/05/13 10:57:54;;;;;;;13.13;2.80;;;17.20;92.00;;;;;;5092437;28;20522;-67
2022/05/13 11:00:39;;;;;;;6.82;2.05;;;17.30;92.50;;;;;;5074742;28;20169;-67
2022/05/13 11:03:18;;;;;;;5.68;2.03;;;17.60;92.90;;;;;;5086271;28;20051;-66
2022/05/13 11:05:54;;;;;;;6.97;2.45;;;17.90;91.90;;;;;;5092715;28;20063;-67
2022/05/13 11:08:36;;;;;;;8.40;2.53;;;18.10;90.10;;;;;;5095974;28;20404;-67
2022/05/13 11:11:25;;;;;;;7.28;2.40;;;18.00;90.20;;;;;;5106298;27;20040;-67
2022/05/13 11:14:14;;;;;;;8.23;2.30;;;17.80;90.00;;;;;;5098049;27;20177;-67
2022/05/13 11:17:14;;;;;;;9.27;2.53;;;17.60;89.50;;;;;;5066560;28;20119;-67
2022/05/13 11:19:59;;;;;;;11.93;3.17;;;17.40;90.60;;;;;;5097286;27;20032;-67
2022/05/13 11:22:45;;;;;;;6.60;2.78;;;17.20;90.90;;;;;;5043369;28;20075;-67
2022/05/13 11:28:11;;;;;;;7.53;3.05;;;17.50;91.80;;;;;;5091606;28;20047;-67
2022/05/13 11:31:12;;;;;;;9.05;2.95;;;17.80;91.80;;;;;;5111265;22;20035;-77
2022/05/13 11:33:46;;;;;;;6.03;2.10;;;18.10;91.10;;;;;;5060809;27;20054;-77
2022/05/13 11:36:17;;;;;;;6.07;2.53;;;18.40;88.40;;;;;;5096314;27;20071;-77
2022/05/13 11:38:46;;;;;;;6.55;2.28;;;18.60;86.40;;;;;;5097225;27;20397;-77
2022/05/13 11:41:23;;;;;;;11.35;2.35;;;18.50;86.50;;;;;;5092735;28;20043;-76
2022/05/13 11:44:00;;;;;;;22.75;2.95;;;18.40;85.90;;;;;;5076454;28;20040;-76
2022/05/13 11:46:48;;;;;;;12.45;2.25;;;18.20;86.20;;;;;;5070649;28;20041;-76
2022/05/13 11:49:34;;;;;;;8.13;2.20;;;18.10;85.80;;;;;;5088031;28;20382;-78
2022/05/13 11:52:12;;;;;;;9.60;2.40;;;17.90;87.10;;;;;;5093520;28;20043;-76
2022/05/13 11:54:40;;;;;;;5.95;2.30;;;18.00;89.20;;;;;;5093456;27;20470;-77
2022/05/13 11:57:26;;;;;;;6.43;2.58;;;18.10;89.80;;;;;;5105059;27;20050;-78
2022/05/13 12:00:15;;;;;;;7.57;2.05;;;18.40;89.20;;;;;;5094763;28;20035;-77
2022/05/13 12:03:09;;;;;;;6.18;2.13;;;18.50;88.30;;;;;;5093294;28;20044;-78
2022/05/13 12:06:04;;;;;;;9.30;2.45;;;18.60;86.40;;;;;;5093051;28;20036;-77
2022/05/13 12:08:42;;;;;;;8.23;2.58;;;18.60;84.40;;;;;;5070479;28;20494;-78
2022/05/13 12:11:32;;;;;;;7.57;2.53;;;18.60;84.00;;;;;;5093412;28;20104;-77
2022/05/13 12:14:33;;;;;;;7.40;2.42;;;18.60;85.30;;;;;;5090179;28;20499;-77
2022/05/13 12:17:12;;;;;;;8.77;2.47;;;18.80;87.00;;;;;;5077226;28;20054;-78
2022/05/13 12:19:59;;;;;;;7.78;2.65;;;19.00;86.10;;;;;;5084946;28;20040;-78
2022/05/13 12:22:40;;;;;;;7.85;2.25;;;19.10;84.70;;;;;;5088498;28;20084;-78
2022/05/13 12:25:12;;;;;;;6.68;2.30;;;19.10;82.60;;;;;;5087605;28;20049;-77
2022/05/13 12:28:01;;;;;;;7.13;2.28;;;19.30;82.70;;;;;;5066612;28;20047;-77
2022/05/13 12:30:39;;;;;;;6.93;2.17;;;19.40;83.40;;;;;;5084336;28;20047;-78
2022/05/13 12:33:20;;;;;;;9.05;2.17;;;19.60;83.30;;;;;;5096035;28;20050;-78
2022/05/13 12:39:10;;;;;;;5.25;1.58;;;20.00;79.30;;;;;;5092076;28;20149;-78
2022/05/13 12:41:42;;;;;;;4.43;1.60;;;19.90;71.20;;;;;;5090026;28;20138;-78
2022/05/13 12:44:14;;;;;;;6.70;2.08;;;19.70;71.80;;;;;;5094891;28;20104;-78
2022/05/13 12:46:45;;;;;;;5.35;1.70;;;19.50;70.50;;;;;;5093654;28;20092;-78
2022/05/13 12:49:18;;;;;;;8.30;1.75;;;19.40;70.80;;;;;;5108712;27;20044;-77
2022/05/13 12:52:02;;;;;;;6.68;1.50;;;19.30;72.20;;;;;;5081521;28;20036;-77
2022/05/13 12:54:33;;;;;;;5.43;1.65;;;19.50;73.40;;;;;;5082967;28;20032;-78
2022/05/13 12:57:10;;;;;;;8.35;2.05;;;19.70;70.40;;;;;;5095162;28;20036;-78
2022/05/13 12:59:42;;;;;;;7.82;1.70;;;19.60;69.20;;;;;;5094934;28;20127;-78
2022/05/13 13:02:08;;;;;;;3.88;1.67;;;19.40;69.80;;;;;;5085937;28;20126;-78
2022/05/13 13:04:41;;;;;;;8.43;2.15;;;19.20;71.40;;;;;;5095555;28;20043;-78
2022/05/13 13:07:10;;;;;;;7.43;1.88;;;19.20;72.20;;;;;;5078789;28;20052;-78
2022/05/13 13:09:47;;;;;;;9.60;2.00;;;19.40;70.70;;;;;;5077898;28;20423;-78
2022/05/13 13:12:18;;;;;;;8.77;2.15;;;19.50;71.40;;;;;;5095554;28;20035;-78
2022/05/13 13:15:13;;;;;;;8.98;2.33;;;19.50;72.20;;;;;;5078772;28;20415;-77
2022/05/13 13:17:56;;;;;;;6.05;2.00;;;19.50;71.30;;;;;;5095396;28;20603;-78
2022/05/13 13:20:30;;;;;;;7.57;1.60;;;19.50;71.10;;;;;;5095196;28;20076;-78
2022/05/13 13:23:02;;;;;;;5.78;2.05;;;19.40;69.70;;;;;;5095486;28;20039;-77
2022/05/13 13:25:28;;;;;;;;;;;19.40;71.00;;;;;;5094043;28;20035;-78
2022/05/13 13:27:57;;;;;;;10.30;2.20;;;19.40;72.90;;;;;;5078366;28;20366;-78
2022/05/13 13:30:24;;;;;;;8.48;2.45;;;19.40;71.90;;;;;;5094735;28;20054;-78
2022/05/13 13:32:51;;;;;;;6.45;2.00;;;19.30;70.60;;;;;;5094130;28;20475;-78
2022/05/13 13:35:37;;;;;;;4.25;1.52;;;19.30;70.00;;;;;;5095110;28;20046;-78